createdAt,value
2022-11-13T00:02:15.000Z,16.40
2022-11-13T00:07:35.532Z,16.23
2022-11-13T00:12:56.230Z,16.77
2022-11-13T00:18:16.461Z,17.23
2022-11-13T00:23:37.608Z,16.17
2022-11-13T00:29:00.464Z,16.13
2022-11-13T00:34:45.937Z,15.57
2022-11-13T00:40:00.873Z,16.57
2022-11-13T00:45:21.295Z,17.27
2022-11-13T00:50:41.987Z,16.73
2022-11-13T00:56:02.668Z,16.20
2022-11-13T01:01:22.848Z,16.00
2022-11-13T01:06:44.518Z,14.23
2022-11-13T01:12:05.205Z,16.73
2022-11-13T01:17:25.636Z,16.00
2022-11-13T01:22:46.125Z,15.00
2022-11-13T01:28:06.700Z,15.57
2022-11-13T01:33:27.174Z,14.13
2022-11-13T01:38:48.245Z,13.70
2022-11-13T01:44:17.067Z,13.43
2022-11-13T01:49:40.748Z,12.93
2022-11-13T01:55:10.798Z,13.33
2022-11-13T02:00:30.801Z,13.80
2022-11-13T02:05:53.345Z,16.73
2022-11-13T02:11:13.675Z,16.37
2022-11-13T02:16:36.970Z,15.90
2022-11-13T02:22:45.528Z,14.57
2022-11-13T02:28:05.718Z,14.80
2022-11-13T02:33:31.659Z,13.27
2022-11-13T02:38:53.340Z,13.27
2022-11-13T02:44:13.744Z,13.33
2022-11-13T02:49:34.308Z,13.20
2022-11-13T02:54:54.778Z,13.07
2022-11-13T03:00:15.719Z,13.63
2022-11-13T03:05:36.054Z,12.93
2022-11-13T03:10:56.765Z,12.43
2022-11-13T03:16:17.483Z,12.10
2022-11-13T03:21:37.980Z,11.87
2022-11-13T03:26:58.465Z,12.83
2022-11-13T03:32:18.969Z,12.73
2022-11-13T03:37:39.455Z,13.47
2022-11-13T03:42:59.913Z,13.20
2022-11-13T03:48:20.665Z,13.00
2022-11-13T03:53:41.449Z,12.53
2022-11-13T03:59:01.839Z,13.37
2022-11-13T04:04:22.565Z,12.60
2022-11-13T04:09:42.834Z,13.10
2022-11-13T04:15:03.796Z,13.77
2022-11-13T04:20:25.108Z,13.80
2022-11-13T04:25:45.257Z,13.53
2022-11-13T04:31:06.394Z,12.93
2022-11-13T04:36:26.707Z,14.20
2022-11-13T04:42:05.762Z,14.10
2022-11-13T04:47:26.199Z,12.73
2022-11-13T04:52:47.179Z,14.40
2022-11-13T04:58:07.271Z,13.30
2022-11-13T05:03:27.900Z,13.40
2022-11-13T05:08:48.484Z,13.00
2022-11-13T05:14:11.637Z,12.73
2022-11-13T05:19:35.375Z,12.90
2022-11-13T05:24:55.521Z,14.33
2022-11-13T05:30:16.566Z,14.30
2022-11-13T05:35:36.781Z,12.97
2022-11-13T05:41:15.249Z,13.57
2022-11-13T05:46:35.662Z,13.93
2022-11-13T05:51:56.043Z,13.90
2022-11-13T05:57:16.692Z,12.80
2022-11-13T06:02:37.286Z,11.70
2022-11-13T06:07:57.866Z,11.63
2022-11-13T06:13:18.367Z,12.90
2022-11-13T06:18:39.983Z,11.57
2022-11-13T06:24:01.964Z,12.60
2022-11-13T06:29:22.469Z,12.67
2022-11-13T06:34:43.049Z,12.43
2022-11-13T06:40:03.888Z,12.27
2022-11-13T06:45:23.962Z,11.27
2022-11-13T06:50:48.259Z,11.53
2022-11-13T06:56:09.899Z,11.33
2022-11-13T07:01:30.312Z,11.60
2022-11-13T07:06:50.743Z,12.10
2022-11-13T07:12:11.144Z,13.10
2022-11-13T07:17:31.612Z,12.40
2022-11-13T07:22:55.647Z,13.37
2022-11-13T07:28:15.761Z,14.30
2022-11-13T07:33:36.291Z,14.57
2022-11-13T07:39:00.104Z,13.50
2022-11-13T07:44:47.776Z,14.47
2022-11-13T07:50:06.890Z,15.80
2022-11-13T07:55:30.583Z,15.53
2022-11-13T08:00:51.034Z,13.53
2022-11-13T08:06:11.274Z,14.03
2022-11-13T08:11:31.932Z,14.47
2022-11-13T08:16:52.495Z,14.30
2022-11-13T08:22:13.188Z,15.07
2022-11-13T08:27:33.713Z,16.10
2022-11-13T08:32:54.479Z,17.57
2022-11-13T08:38:14.546Z,18.17
2022-11-13T08:43:35.150Z,19.13
2022-11-13T08:48:55.662Z,21.50
2022-11-13T08:54:16.848Z,24.90
2022-11-13T08:59:37.454Z,24.47
2022-11-13T09:04:57.932Z,19.57
2022-11-13T09:10:18.925Z,16.67
2022-11-13T09:15:39.595Z,17.30
2022-11-13T09:21:03.447Z,19.30
2022-11-13T09:26:23.539Z,20.00
2022-11-13T09:31:45.199Z,21.83
2022-11-13T09:37:05.639Z,18.70
2022-11-13T09:42:28.442Z,17.80
2022-11-13T09:47:52.027Z,15.37
2022-11-13T09:53:14.321Z,14.30
2022-11-13T09:58:46.756Z,14.40
2022-11-13T10:04:14.300Z,13.53
2022-11-13T10:09:59.859Z,50.57
2022-11-13T10:15:20.518Z,45.67
2022-11-13T10:20:49.028Z,17.83
2022-11-13T10:26:18.150Z,23.33
2022-11-13T10:31:47.019Z,15.20
2022-11-13T10:37:20.219Z,13.80
2022-11-13T10:42:41.926Z,11.83
2022-11-13T10:48:05.018Z,10.47
2022-11-13T10:53:28.829Z,9.10
2022-11-13T10:59:04.772Z,8.20
2022-11-13T11:04:30.004Z,7.60
2022-11-13T11:09:51.443Z,7.27
2022-11-13T11:15:26.640Z,6.97
2022-11-13T11:20:55.468Z,6.60
2022-11-13T11:26:26.478Z,7.13
2022-11-13T11:32:15.931Z,6.43
2022-11-13T11:37:42.185Z,6.63
2022-11-13T11:43:20.993Z,5.70
2022-11-13T11:48:41.877Z,5.78
2022-11-13T11:54:14.407Z,5.30
2022-11-13T11:59:56.419Z,5.22
2022-11-13T12:05:19.881Z,5.05
2022-11-13T12:11:18.766Z,5.35
2022-11-13T12:17:17.328Z,4.85
2022-11-13T12:23:07.855Z,4.70
2022-11-13T12:28:49.970Z,5.13
2022-11-13T12:34:31.487Z,4.70
2022-11-13T12:40:05.889Z,5.35
2022-11-13T12:45:53.335Z,5.40
2022-11-13T12:51:18.351Z,6.28
2022-11-13T12:56:38.813Z,7.70
2022-11-13T13:02:08.506Z,8.18
2022-11-13T13:08:04.775Z,7.40
2022-11-13T13:13:35.694Z,7.05
2022-11-13T13:19:32.573Z,6.25
2022-11-13T13:25:04.568Z,6.72
2022-11-13T13:30:26.406Z,6.00
2022-11-13T13:36:15.249Z,6.00
2022-11-13T13:42:21.541Z,5.78
2022-11-13T13:47:48.592Z,5.50
2022-11-13T13:53:13.463Z,4.82
2022-11-13T13:58:36.529Z,5.18
2022-11-13T14:04:20.031Z,4.45
2022-11-13T14:09:40.115Z,4.93
2022-11-13T14:15:04.698Z,5.68
2022-11-13T14:20:25.375Z,4.95
2022-11-13T14:25:47.153Z,5.13
2022-11-13T14:31:11.295Z,5.45
2022-11-13T14:36:33.912Z,5.10
2022-11-13T14:41:57.439Z,5.30
2022-11-13T14:47:26.736Z,6.00
2022-11-13T14:52:56.676Z,5.95
2022-11-13T14:58:33.553Z,5.90
2022-11-13T15:03:53.710Z,5.83
2022-11-13T15:09:17.403Z,5.37
2022-11-13T15:14:40.908Z,5.47
2022-11-13T15:20:04.192Z,6.00
2022-11-13T15:25:29.094Z,6.10
2022-11-13T15:30:49.790Z,11.80
2022-11-13T15:36:10.328Z,12.03
2022-11-13T15:41:32.906Z,12.80
2022-11-13T15:46:53.357Z,11.77
2022-11-13T15:52:13.724Z,13.83
2022-11-13T15:57:34.289Z,15.77
2022-11-13T16:02:56.527Z,12.13
2022-11-13T16:08:17.003Z,12.87
2022-11-13T16:13:37.438Z,13.13
2022-11-13T16:19:00.456Z,14.60
2022-11-13T16:24:24.253Z,14.70
2022-11-13T16:29:44.569Z,14.80
2022-11-13T16:35:05.467Z,12.43
2022-11-13T16:40:26.494Z,11.73
2022-11-13T16:45:46.742Z,13.37
2022-11-13T16:51:07.487Z,14.40
2022-11-13T16:56:30.527Z,15.87
2022-11-13T17:01:55.038Z,13.37
2022-11-13T17:07:16.189Z,12.83
2022-11-13T17:12:36.641Z,12.17
2022-11-13T17:17:58.550Z,9.33
2022-11-13T17:23:18.839Z,9.63
2022-11-13T17:28:39.820Z,10.90
2022-11-13T17:34:00.355Z,12.63
2022-11-13T17:39:21.421Z,13.50
2022-11-13T17:44:43.385Z,13.83
2022-11-13T17:50:07.337Z,14.60
2022-11-13T17:55:28.449Z,14.73
2022-11-13T18:00:49.663Z,21.37
2022-11-13T18:06:13.608Z,27.00
2022-11-13T18:11:34.542Z,23.60
2022-11-13T18:16:55.047Z,22.77
2022-11-13T18:22:15.744Z,21.83
2022-11-13T18:27:36.848Z,23.17
2022-11-13T18:32:57.237Z,25.23
2022-11-13T18:38:17.843Z,22.43
2022-11-13T18:43:39.115Z,22.80
2022-11-13T18:48:59.751Z,23.33
2022-11-13T18:54:20.605Z,22.53
2022-11-13T18:59:41.041Z,22.03
2022-11-13T19:05:01.596Z,20.90
2022-11-13T19:10:22.431Z,22.93
2022-11-13T19:15:42.941Z,22.00
2022-11-13T19:21:05.948Z,23.37
2022-11-13T19:26:26.963Z,29.40
2022-11-13T19:31:48.468Z,26.70
2022-11-13T19:37:11.893Z,24.37
2022-11-13T19:42:41.847Z,21.37
2022-11-13T19:48:02.563Z,21.50
2022-11-13T19:53:22.876Z,22.60
2022-11-13T19:58:44.372Z,22.90
2022-11-13T20:04:06.507Z,24.13
2022-11-13T20:09:28.806Z,24.77
2022-11-13T20:14:49.446Z,26.17
2022-11-13T20:20:10.691Z,24.03
2022-11-13T20:25:31.128Z,24.20
2022-11-13T20:30:51.838Z,27.17
2022-11-13T20:36:12.199Z,26.67
2022-11-13T20:41:32.748Z,25.17
2022-11-13T20:46:53.310Z,24.17
2022-11-13T20:52:13.903Z,20.63
2022-11-13T20:57:39.647Z,24.97
2022-11-13T21:03:01.368Z,23.17
2022-11-13T21:08:22.022Z,25.10
2022-11-13T21:13:42.737Z,23.17
2022-11-13T21:19:03.206Z,23.00
2022-11-13T21:24:23.807Z,23.60
2022-11-13T21:29:44.095Z,21.37
2022-11-13T21:35:04.831Z,22.17
2022-11-13T21:40:25.168Z,21.47
2022-11-13T21:45:45.615Z,21.37
2022-11-13T21:51:06.274Z,20.30
2022-11-13T21:56:28.359Z,22.70
2022-11-13T22:01:49.015Z,20.67
2022-11-13T22:07:09.624Z,19.63
2022-11-13T22:12:30.044Z,19.27
2022-11-13T22:17:50.614Z,18.83
2022-11-13T22:23:11.116Z,19.10
2022-11-13T22:28:33.368Z,19.63
2022-11-13T22:33:55.373Z,18.37
2022-11-13T22:39:15.610Z,21.07
2022-11-13T22:44:54.907Z,22.57
2022-11-13T22:50:16.851Z,23.20
2022-11-13T22:55:37.586Z,21.90
2022-11-13T23:01:25.962Z,19.70
2022-11-13T23:06:46.346Z,18.53
2022-11-13T23:12:06.790Z,19.10
2022-11-13T23:17:27.358Z,18.93
2022-11-13T23:22:47.999Z,19.60
2022-11-13T23:28:09.178Z,18.43
2022-11-13T23:33:30.062Z,18.77
2022-11-13T23:38:50.235Z,18.97
2022-11-13T23:44:10.905Z,17.73
2022-11-13T23:49:31.358Z,17.47
2022-11-13T23:54:52.028Z,17.17
